sensor_id;sensor_type;location;lat;lon;timestamp;pressure;altitude;pressure_sealevel;temperature;humidity
9277;BME280;4676;42.678;23.244;2023-03-22T00:00:34;93760.97;;;8.55;100.00
9277;BME280;4676;42.678;23.244;2023-03-22T00:03:01;93755.81;;;8.58;100.00
9277;BME280;4676;42.678;23.244;2023-03-22T00:05:28;93764.28;;;8.57;100.00
9277;BME280;4676;42.678;23.244;2023-03-22T00:07:55;93759.97;;;8.59;100.00
9277;BME280;4676;42.678;23.244;2023-03-22T00:10:24;93766.00;;;8.55;100.00
9277;BME280;4676;42.678;23.244;2023-03-22T00:12:52;93765.25;;;8.53;100.00
9277;BME280;4676;42.678;23.244;2023-03-22T00:15:19;93762.75;;;8.53;100.00
9277;BME280;4676;42.678;23.244;2023-03-22T00:17:45;93762.63;;;8.56;100.00
9277;BME280;4676;42.678;23.244;2023-03-22T00:20:12;93759.97;;;8.59;100.00
9277;BME280;4676;42.678;23.244;2023-03-22T00:22:39;93763.41;;;8.58;100.00
9277;BME280;4676;42.678;23.244;2023-03-22T00:25:06;93757.28;;;8.64;100.00
9277;BME280;4676;42.678;23.244;2023-03-22T00:27:36;93757.28;;;8.64;100.00
9277;BME280;4676;42.678;23.244;2023-03-22T00:30:03;93759.97;;;8.59;100.00
9277;BME280;4676;42.678;23.244;2023-03-22T00:32:33;93750.69;;;8.60;100.00
9277;BME280;4676;42.678;23.244;2023-03-22T00:34:59;93756.47;;;8.63;100.00
9277;BME280;4676;42.678;23.244;2023-03-22T00:37:28;93750.88;;;8.55;100.00
9277;BME280;4676;42.678;23.244;2023-03-22T00:39:58;93708.13;;;8.29;100.00
9277;BME280;4676;42.678;23.244;2023-03-22T00:42:25;93752.28;;;8.62;100.00
9277;BME280;4676;42.678;23.244;2023-03-22T00:44:53;93748.34;;;8.55;100.00
9277;BME280;4676;42.678;23.244;2023-03-22T00:47:20;93747.81;;;8.47;100.00
9277;BME280;4676;42.678;23.244;2023-03-22T00:49:47;93746.28;;;8.43;100.00
9277;BME280;4676;42.678;23.244;2023-03-22T00:52:14;93743.19;;;8.36;100.00
9277;BME280;4676;42.678;23.244;2023-03-22T00:54:41;93751.03;;;8.29;100.00
9277;BME280;4676;42.678;23.244;2023-03-22T00:57:08;93744.28;;;8.28;100.00
9277;BME280;4676;42.678;23.244;2023-03-22T00:59:35;93742.88;;;8.21;100.00
9277;BME280;4676;42.678;23.244;2023-03-22T01:02:04;93745.19;;;8.27;100.00
9277;BME280;4676;42.678;23.244;2023-03-22T01:04:31;93740.94;;;8.27;100.00
9277;BME280;4676;42.678;23.244;2023-03-22T01:06:59;93734.28;;;8.26;100.00
9277;BME280;4676;42.678;23.244;2023-03-22T01:09:29;93738.72;;;8.20;100.00
9277;BME280;4676;42.678;23.244;2023-03-22T01:11:59;93738.59;;;8.23;100.00
9277;BME280;4676;42.678;23.244;2023-03-22T01:14:27;93730.97;;;8.24;100.00
9277;BME280;4676;42.678;23.244;2023-03-22T01:16:56;93731.94;;;8.20;100.00
9277;BME280;4676;42.678;23.244;2023-03-22T01:19:24;93734.94;;;8.31;100.00
9277;BME280;4676;42.678;23.244;2023-03-22T01:21:52;93733.44;;;8.26;100.00
9277;BME280;4676;42.678;23.244;2023-03-22T01:24:19;93733.34;;;8.29;100.00
9277;BME280;4676;42.678;23.244;2023-03-22T01:26:45;93720.75;;;8.27;100.00
9277;BME280;4676;42.678;23.244;2023-03-22T01:29:12;93728.31;;;8.27;100.00
9277;BME280;4676;42.678;23.244;2023-03-22T01:31:39;93727.47;;;8.28;100.00
9277;BME280;4676;42.678;23.244;2023-03-22T01:34:06;93721.66;;;8.26;100.00
9277;BME280;4676;42.678;23.244;2023-03-22T01:36:35;93719.16;;;8.25;100.00
9277;BME280;4676;42.678;23.244;2023-03-22T01:39:02;93722.63;;;8.22;100.00
9277;BME280;4676;42.678;23.244;2023-03-22T01:41:29;93713.38;;;8.23;100.00
9277;BME280;4676;42.678;23.244;2023-03-22T01:44:10;93714.06;;;8.26;100.00
9277;BME280;4676;42.678;23.244;2023-03-22T01:46:38;93709.78;;;8.30;100.00
9277;BME280;4676;42.678;23.244;2023-03-22T01:49:07;93715.81;;;8.24;100.00
9277;BME280;4676;42.678;23.244;2023-03-22T01:51:37;93706.41;;;8.29;100.00
9277;BME280;4676;42.678;23.244;2023-03-22T01:54:07;93712.47;;;8.24;100.00
9277;BME280;4676;42.678;23.244;2023-03-22T01:56:38;93695.91;;;8.17;100.00
9277;BME280;4676;42.678;23.244;2023-03-22T01:59:06;93711.47;;;8.28;100.00
9277;BME280;4676;42.678;23.244;2023-03-22T02:01:33;93703.97;;;8.26;100.00
9277;BME280;4676;42.678;23.244;2023-03-22T02:04:04;93711.47;;;8.29;100.00
9277;BME280;4676;42.678;23.244;2023-03-22T02:06:33;93714.06;;;8.26;100.00
9277;BME280;4676;42.678;23.244;2023-03-22T02:09:04;93709.16;;;8.23;100.00
9277;BME280;4676;42.678;23.244;2023-03-22T02:11:34;93708.31;;;8.23;100.00
9277;BME280;4676;42.678;23.244;2023-03-22T02:14:21;93711.72;;;8.22;100.00
9277;BME280;4676;42.678;23.244;2023-03-22T02:17:01;93703.38;;;8.20;100.00
9277;BME280;4676;42.678;23.244;2023-03-22T02:28:28;93717.72;;;8.19;100.00
9277;BME280;4676;42.678;23.244;2023-03-22T02:31:13;93711.75;;;8.20;100.00
9277;BME280;4676;42.678;23.244;2023-03-22T02:33:56;93713.56;;;8.17;100.00
9277;BME280;4676;42.678;23.244;2023-03-22T02:36:48;93716.88;;;8.19;100.00
9277;BME280;4676;42.678;23.244;2023-03-22T02:39:30;93720.38;;;8.15;100.00
9277;BME280;4676;42.678;23.244;2023-03-22T02:42:07;93726.25;;;8.15;100.00
9277;BME280;4676;42.678;23.244;2023-03-22T02:44:40;93723.78;;;8.14;100.00
9277;BME280;4676;42.678;23.244;2023-03-22T02:47:12;93723.03;;;8.12;100.00
9277;BME280;4676;42.678;23.244;2023-03-22T02:49:48;93725.59;;;8.10;100.00
9277;BME280;4676;42.678;23.244;2023-03-22T02:52:20;93729.94;;;8.07;100.00
9277;BME280;4676;42.678;23.244;2023-03-22T02:54:54;93727.38;;;8.08;100.00
9277;BME280;4676;42.678;23.244;2023-03-22T02:57:30;93726.44;;;8.11;100.00
9277;BME280;4676;42.678;23.244;2023-03-22T02:59:58;93730.66;;;8.10;100.00
9277;BME280;4676;42.678;23.244;2023-03-22T03:02:28;93728.25;;;8.07;100.00
9277;BME280;4676;42.678;23.244;2023-03-22T03:04:56;93727.28;;;8.10;100.00
9277;BME280;4676;42.678;23.244;2023-03-22T03:07:26;93735.97;;;8.02;100.00
9277;BME280;4676;42.678;23.244;2023-03-22T03:09:55;93729.19;;;8.04;100.00
9277;BME280;4676;42.678;23.244;2023-03-22T03:12:25;93727.53;;;8.03;100.00
9277;BME280;4676;42.678;23.244;2023-03-22T03:14:52;93729.94;;;8.07;100.00
9277;BME280;4676;42.678;23.244;2023-03-22T03:17:26;93731.94;;;7.98;100.00
9277;BME280;4676;42.678;23.244;2023-03-22T03:20:03;93729.34;;;8.00;100.00
9277;BME280;4676;42.678;23.244;2023-03-22T03:22:43;93727.59;;;8.02;100.00
9277;BME280;4676;42.678;23.244;2023-03-22T03:25:17;93734.28;;;8.03;100.00
9277;BME280;4676;42.678;23.244;2023-03-22T03:27:50;93731.00;;;8.01;100.00
9277;BME280;4676;42.678;23.244;2023-03-22T03:30:25;93735.06;;;8.05;100.00
9277;BME280;4676;42.678;23.244;2023-03-22T03:32:57;93730.75;;;8.07;100.00
9277;BME280;4676;42.678;23.244;2023-03-22T03:35:28;93739.28;;;8.04;100.00
9277;BME280;4676;42.678;23.244;2023-03-22T03:38:01;93742.44;;;8.10;100.00
9277;BME280;4676;42.678;23.244;2023-03-22T03:40:32;93736.75;;;8.04;100.00
9277;BME280;4676;42.678;23.244;2023-03-22T03:43:02;93737.56;;;8.05;100.00
9277;BME280;4676;42.678;23.244;2023-03-22T03:45:31;93745.25;;;8.02;100.00
9277;BME280;4676;42.678;23.244;2023-03-22T03:48:01;93744.19;;;8.08;100.00
9277;BME280;4676;42.678;23.244;2023-03-22T03:50:30;93744.91;;;8.11;100.00
9277;BME280;4676;42.678;23.244;2023-03-22T03:52:57;93750.94;;;8.07;100.00
9277;BME280;4676;42.678;23.244;2023-03-22T03:55:25;93750.06;;;8.08;100.00
9277;BME280;4676;42.678;23.244;2023-03-22T03:57:54;93753.47;;;8.07;100.00
9277;BME280;4676;42.678;23.244;2023-03-22T04:00:21;93746.06;;;8.02;100.00
9277;BME280;4676;42.678;23.244;2023-03-22T04:02:48;93739.44;;;8.00;100.00
9277;BME280;4676;42.678;23.244;2023-03-22T04:05:15;93757.88;;;8.02;100.00
9277;BME280;4676;42.678;23.244;2023-03-22T04:07:41;93757.09;;;8.00;100.00
9277;BME280;4676;42.678;23.244;2023-03-22T04:10:09;93766.34;;;7.99;100.00
9277;BME280;4676;42.678;23.244;2023-03-22T04:12:35;93756.97;;;8.03;100.00
9277;BME280;4676;42.678;23.244;2023-03-22T04:15:05;93763.63;;;8.06;100.00
9277;BME280;4676;42.678;23.244;2023-03-22T04:17:32;93761.97;;;8.04;100.00
9277;BME280;4676;42.678;23.244;2023-03-22T04:19:59;93764.28;;;8.11;100.00
9277;BME280;4676;42.678;23.244;2023-03-22T04:22:30;93763.34;;;8.13;100.00
9277;BME280;4676;42.678;23.244;2023-03-22T04:24:58;93762.19;;;8.22;100.00
9277;BME280;4676;42.678;23.244;2023-03-22T04:27:26;93763.19;;;8.18;100.00
9277;BME280;4676;42.678;23.244;2023-03-22T04:29:52;93767.59;;;8.13;100.00
9277;BME280;4676;42.678;23.244;2023-03-22T04:32:21;93739.59;;;7.95;100.00
9277;BME280;4676;42.678;23.244;2023-03-22T04:34:49;93753.53;;;8.06;100.00
9277;BME280;4676;42.678;23.244;2023-03-22T04:37:17;93756.81;;;8.08;100.00
9277;BME280;4676;42.678;23.244;2023-03-22T04:39:44;93757.50;;;8.13;100.00
9277;BME280;4676;42.678;23.244;2023-03-22T04:42:11;93764.16;;;8.14;100.00
9277;BME280;4676;42.678;23.244;2023-03-22T04:44:38;93767.75;;;8.08;100.00
9277;BME280;4676;42.678;23.244;2023-03-22T04:47:04;93771.03;;;8.10;100.00
9277;BME280;4676;42.678;23.244;2023-03-22T04:49:33;93771.56;;;8.18;100.00
9277;BME280;4676;42.678;23.244;2023-03-22T04:51:59;93770.97;;;8.12;100.00
9277;BME280;4676;42.678;23.244;2023-03-22T04:54:26;93782.03;;;8.09;100.00
9277;BME280;4676;42.678;23.244;2023-03-22T04:56:53;93785.44;;;8.07;100.00
9277;BME280;4676;42.678;23.244;2023-03-22T04:59:20;93779.56;;;8.06;100.00
9277;BME280;4676;42.678;23.244;2023-03-22T05:01:47;93783.81;;;8.06;100.00
9277;BME280;4676;42.678;23.244;2023-03-22T05:04:14;93781.31;;;8.06;100.00
9277;BME280;4676;42.678;23.244;2023-03-22T05:06:43;93785.34;;;8.10;100.00
9277;BME280;4676;42.678;23.244;2023-03-22T05:09:12;93783.53;;;8.13;100.00
9277;BME280;4676;42.678;23.244;2023-03-22T05:11:39;93786.13;;;8.12;100.00
9277;BME280;4676;42.678;23.244;2023-03-22T05:14:07;93787.66;;;8.16;100.00
9277;BME280;4676;42.678;23.244;2023-03-22T05:16:34;93791.66;;;8.21;100.00
9277;BME280;4676;42.678;23.244;2023-03-22T05:19:05;93790.06;;;8.19;100.00
9277;BME280;4676;42.678;23.244;2023-03-22T05:21:39;93801.00;;;8.19;100.00
9277;BME280;4676;42.678;23.244;2023-03-22T05:24:08;93782.09;;;8.06;100.00
9277;BME280;4676;42.678;23.244;2023-03-22T05:26:34;93805.00;;;8.25;100.00
9277;BME280;4676;42.678;23.244;2023-03-22T05:29:02;93805.84;;;8.24;100.00
9277;BME280;4676;42.678;23.244;2023-03-22T05:31:29;93803.34;;;8.24;100.00
9277;BME280;4676;42.678;23.244;2023-03-22T05:33:59;93799.34;;;8.18;100.00
9277;BME280;4676;42.678;23.244;2023-03-22T05:36:26;93795.69;;;8.27;100.00
9277;BME280;4676;42.678;23.244;2023-03-22T05:38:54;93798.06;;;8.31;100.00
9277;BME280;4676;42.678;23.244;2023-03-22T05:41:22;93808.00;;;8.36;100.00
9277;BME280;4676;42.678;23.244;2023-03-22T05:43:48;93810.56;;;8.34;100.00
9277;BME280;4676;42.678;23.244;2023-03-22T05:46:16;93798.88;;;8.32;100.00
9277;BME280;4676;42.678;23.244;2023-03-22T05:48:42;93813.91;;;8.35;100.00
9277;BME280;4676;42.678;23.244;2023-03-22T05:51:11;93813.88;;;8.36;100.00
9277;BME280;4676;42.678;23.244;2023-03-22T05:53:42;93808.03;;;8.34;100.00
9277;BME280;4676;42.678;23.244;2023-03-22T05:56:09;93817.72;;;8.46;100.00
9277;BME280;4676;42.678;23.244;2023-03-22T05:58:37;93823.59;;;8.47;100.00
9277;BME280;4676;42.678;23.244;2023-03-22T06:01:06;93821.94;;;8.46;100.00
9277;BME280;4676;42.678;23.244;2023-03-22T06:03:33;93820.13;;;8.49;100.00
9277;BME280;4676;42.678;23.244;2023-03-22T06:06:00;93824.94;;;8.56;100.00
9277;BME280;4676;42.678;23.244;2023-03-22T06:08:31;93822.47;;;8.54;100.00
9277;BME280;4676;42.678;23.244;2023-03-22T06:10:58;93828.28;;;8.56;100.00
9277;BME280;4676;42.678;23.244;2023-03-22T06:13:25;93832.34;;;8.60;100.00
9277;BME280;4676;42.678;23.244;2023-03-22T06:15:53;93828.94;;;8.61;100.00
9277;BME280;4676;42.678;23.244;2023-03-22T06:18:20;93825.53;;;8.62;100.00
9277;BME280;4676;42.678;23.244;2023-03-22T06:20:47;93819.97;;;8.54;100.00
9277;BME280;4676;42.678;23.244;2023-03-22T06:23:13;93831.25;;;8.67;100.00
9277;BME280;4676;42.678;23.244;2023-03-22T06:25:40;93835.94;;;8.76;100.00
9277;BME280;4676;42.678;23.244;2023-03-22T06:28:07;93829.00;;;8.83;100.00
9277;BME280;4676;42.678;23.244;2023-03-22T06:30:33;93837.16;;;8.89;100.00
9277;BME280;4676;42.678;23.244;2023-03-22T06:33:02;93835.13;;;8.97;100.00
9277;BME280;4676;42.678;23.244;2023-03-22T06:35:30;93837.50;;;9.02;100.00
9277;BME280;4676;42.678;23.244;2023-03-22T06:37:57;93837.88;;;8.93;100.00
9277;BME280;4676;42.678;23.244;2023-03-22T06:40:24;93838.78;;;8.90;100.00
9277;BME280;4676;42.678;23.244;2023-03-22T06:42:51;93849.31;;;9.01;100.00
9277;BME280;4676;42.678;23.244;2023-03-22T06:45:18;93854.06;;;8.87;100.00
9277;BME280;4676;42.678;23.244;2023-03-22T06:47:45;93852.25;;;8.91;100.00
9277;BME280;4676;42.678;23.244;2023-03-22T06:50:13;93855.06;;;9.05;100.00
9277;BME280;4676;42.678;23.244;2023-03-22T06:52:40;93854.88;;;9.11;100.00
9277;BME280;4676;42.678;23.244;2023-03-22T06:55:08;93859.00;;;9.12;100.00
9277;BME280;4676;42.678;23.244;2023-03-22T06:57:34;93858.88;;;9.15;100.00
9277;BME280;4676;42.678;23.244;2023-03-22T07:00:02;93850.09;;;9.25;100.00
9277;BME280;4676;42.678;23.244;2023-03-22T07:02:29;93855.63;;;9.35;100.00
9277;BME280;4676;42.678;23.244;2023-03-22T07:04:56;93863.94;;;9.37;100.00
9277;BME280;4676;42.678;23.244;2023-03-22T07:07:24;93864.66;;;9.40;100.00
9277;BME280;4676;42.678;23.244;2023-03-22T07:09:51;93866.44;;;9.38;100.00
9277;BME280;4676;42.678;23.244;2023-03-22T07:12:18;93859.72;;;9.37;100.00
9277;BME280;4676;42.678;23.244;2023-03-22T07:14:44;93868.50;;;9.29;100.00
9277;BME280;4676;42.678;23.244;2023-03-22T07:17:11;93876.19;;;9.26;100.00
9277;BME280;4676;42.678;23.244;2023-03-22T07:19:38;93871.72;;;9.11;100.00
9277;BME280;4676;42.678;23.244;2023-03-22T07:22:06;93869.84;;;9.16;100.00
9277;BME280;4676;42.678;23.244;2023-03-22T07:24:35;93881.34;;;9.23;100.00
9277;BME280;4676;42.678;23.244;2023-03-22T07:27:01;93878.16;;;9.39;100.00
9277;BME280;4676;42.678;23.244;2023-03-22T07:29:28;93883.22;;;9.39;100.00
9277;BME280;4676;42.678;23.244;2023-03-22T07:31:55;93881.41;;;9.43;100.00
9277;BME280;4676;42.678;23.244;2023-03-22T07:34:21;93888.13;;;9.44;100.00
9277;BME280;4676;42.678;23.244;2023-03-22T07:36:48;93893.25;;;9.42;100.00
9277;BME280;4676;42.678;23.244;2023-03-22T07:39:15;93898.34;;;9.41;100.00
9277;BME280;4676;42.678;23.244;2023-03-22T07:41:43;93874.94;;;9.36;100.00
9277;BME280;4676;42.678;23.244;2023-03-22T07:44:10;93891.31;;;9.49;100.00
9277;BME280;4676;42.678;23.244;2023-03-22T07:46:36;93890.41;;;9.50;100.00
9277;BME280;4676;42.678;23.244;2023-03-22T07:49:03;93888.69;;;9.50;100.00
9277;BME280;4676;42.678;23.244;2023-03-22T07:51:30;93888.56;;;9.53;100.00
9277;BME280;4676;42.678;23.244;2023-03-22T07:53:56;93896.06;;;9.57;100.00
9277;BME280;4676;42.678;23.244;2023-03-22T07:56:23;93897.47;;;9.64;100.00
9277;BME280;4676;42.678;23.244;2023-03-22T07:58:51;93900.09;;;9.61;100.00
9277;BME280;4676;42.678;23.244;2023-03-22T08:01:18;93907.47;;;9.45;100.00
9277;BME280;4676;42.678;23.244;2023-03-22T08:03:45;93905.13;;;9.40;100.00
9277;BME280;4676;42.678;23.244;2023-03-22T08:06:12;93901.06;;;9.36;100.00
9277;BME280;4676;42.678;23.244;2023-03-22T08:08:40;93898.66;;;9.33;100.00
9277;BME280;4676;42.678;23.244;2023-03-22T08:11:07;93897.91;;;9.31;100.00
9277;BME280;4676;42.678;23.244;2023-03-22T08:13:33;93904.66;;;9.31;100.00
9277;BME280;4676;42.678;23.244;2023-03-22T08:16:02;93901.13;;;9.35;100.00
9277;BME280;4676;42.678;23.244;2023-03-22T08:18:28;93902.84;;;9.34;100.00
9277;BME280;4676;42.678;23.244;2023-03-22T08:20:56;93908.00;;;9.31;100.00
9277;BME280;4676;42.678;23.244;2023-03-22T08:23:23;93909.53;;;9.35;100.00
9277;BME280;4676;42.678;23.244;2023-03-22T08:25:51;93907.75;;;9.37;100.00
9277;BME280;4676;42.678;23.244;2023-03-22T08:28:18;93903.19;;;9.25;100.00
9277;BME280;4676;42.678;23.244;2023-03-22T08:30:46;93899.88;;;9.23;100.00
9277;BME280;4676;42.678;23.244;2023-03-22T08:33:14;93914.19;;;9.24;100.00
9277;BME280;4676;42.678;23.244;2023-03-22T08:35:42;93908.59;;;9.16;100.00
9277;BME280;4676;42.678;23.244;2023-03-22T08:38:09;93918.69;;;9.16;100.00
9277;BME280;4676;42.678;23.244;2023-03-22T08:40:36;93924.81;;;9.11;100.00
9277;BME280;4676;42.678;23.244;2023-03-22T08:43:02;93919.91;;;9.06;100.00
9277;BME280;4676;42.678;23.244;2023-03-22T08:45:29;93924.22;;;9.04;100.00
9277;BME280;4676;42.678;23.244;2023-03-22T08:47:56;93918.34;;;9.03;100.00
9277;BME280;4676;42.678;23.244;2023-03-22T08:50:25;93918.34;;;9.03;100.00
9277;BME280;4676;42.678;23.244;2023-03-22T08:52:52;93923.44;;;9.02;100.00
9277;BME280;4676;42.678;23.244;2023-03-22T08:55:19;93922.88;;;8.94;100.00
9277;BME280;4676;42.678;23.244;2023-03-22T08:57:46;93925.22;;;9.00;100.00
9277;BME280;4676;42.678;23.244;2023-03-22T09:00:16;93920.91;;;9.02;100.00
9277;BME280;4676;42.678;23.244;2023-03-22T09:02:43;93927.94;;;8.94;100.00
9277;BME280;4676;42.678;23.244;2023-03-22T09:05:09;93929.94;;;8.86;100.00
9277;BME280;4676;42.678;23.244;2023-03-22T09:07:39;93924.44;;;8.75;100.00
9277;BME280;4676;42.678;23.244;2023-03-22T09:10:07;93926.69;;;8.82;100.00
9277;BME280;4676;42.678;23.244;2023-03-22T09:12:34;93922.56;;;8.80;100.00
9277;BME280;4676;42.678;23.244;2023-03-22T09:15:01;93928.75;;;8.94;100.00
9277;BME280;4676;42.678;23.244;2023-03-22T09:17:28;93928.00;;;8.92;100.00
9277;BME280;4676;42.678;23.244;2023-03-22T09:19:55;93938.47;;;9.05;100.00
9277;BME280;4676;42.678;23.244;2023-03-22T09:22:22;93923.81;;;8.91;100.00
9277;BME280;4676;42.678;23.244;2023-03-22T09:24:50;93931.28;;;8.94;100.00
9277;BME280;4676;42.678;23.244;2023-03-22T09:27:17;93936.47;;;8.91;100.00
9277;BME280;4676;42.678;23.244;2023-03-22T09:29:44;93920.47;;;8.91;100.00
9277;BME280;4676;42.678;23.244;2023-03-22T09:32:10;93932.84;;;8.98;100.00
9277;BME280;4676;42.678;23.244;2023-03-22T09:34:37;93930.47;;;8.94;100.00
9277;BME280;4676;42.678;23.244;2023-03-22T09:37:04;93927.22;;;8.90;100.00
9277;BME280;4676;42.678;23.244;2023-03-22T09:39:30;93927.53;;;9.04;100.00
9277;BME280;4676;42.678;23.244;2023-03-22T09:42:01;93929.91;;;9.09;100.00
9277;BME280;4676;42.678;23.244;2023-03-22T09:44:33;93929.63;;;9.17;100.00
9277;BME280;4676;42.678;23.244;2023-03-22T09:47:00;93923.63;;;9.19;100.00
9277;BME280;4676;42.678;23.244;2023-03-22T09:49:33;93932.91;;;9.19;100.00
9277;BME280;4676;42.678;23.244;2023-03-22T09:52:04;93915.28;;;9.17;100.00
9277;BME280;4676;42.678;23.244;2023-03-22T09:54:37;93915.16;;;9.20;100.00
9277;BME280;4676;42.678;23.244;2023-03-22T09:57:08;93935.25;;;9.25;100.00
9277;BME280;4676;42.678;23.244;2023-03-22T09:59:43;93931.81;;;9.26;100.00
9277;BME280;4676;42.678;23.244;2023-03-22T10:02:35;93932.00;;;9.21;100.00
9277;BME280;4676;42.678;23.244;2023-03-22T10:05:12;93935.56;;;9.16;100.00
9277;BME280;4676;42.678;23.244;2023-03-22T10:07:52;93935.44;;;9.19;100.00
9277;BME280;4676;42.678;23.244;2023-03-22T10:10:24;93927.00;;;9.20;100.00
9277;BME280;4676;42.678;23.244;2023-03-22T10:12:56;93935.72;;;9.34;100.00
9277;BME280;4676;42.678;23.244;2023-03-22T10:15:29;93940.34;;;9.23;100.00
9277;BME280;4676;42.678;23.244;2023-03-22T10:17:59;93936.47;;;9.15;100.00
9277;BME280;4676;42.678;23.244;2023-03-22T10:20:32;93935.34;;;9.22;100.00
9277;BME280;4676;42.678;23.244;2023-03-22T10:23:03;93934.88;;;9.34;100.00
9277;BME280;4676;42.678;23.244;2023-03-22T10:25:34;93939.69;;;9.40;100.00
9277;BME280;4676;42.678;23.244;2023-03-22T10:28:12;93941.50;;;9.36;100.00
9277;BME280;4676;42.678;23.244;2023-03-22T10:30:45;93945.69;;;9.37;100.00
9277;BME280;4676;42.678;23.244;2023-03-22T10:33:20;93948.06;;;9.42;100.00
9277;BME280;4676;42.678;23.244;2023-03-22T10:35:50;93940.53;;;9.40;100.00
9277;BME280;4676;42.678;23.244;2023-03-22T10:38:21;93941.19;;;9.45;100.00
9277;BME280;4676;42.678;23.244;2023-03-22T10:40:50;93935.34;;;9.43;100.00
9277;BME280;4676;42.678;23.244;2023-03-22T10:43:24;93936.47;;;9.58;100.00
9277;BME280;4676;42.678;23.244;2023-03-22T10:45:54;93935.13;;;9.49;100.00
9277;BME280;4676;42.678;23.244;2023-03-22T10:48:26;93935.06;;;9.51;100.00
9277;BME280;4676;42.678;23.244;2023-03-22T10:50:55;93931.78;;;9.49;100.00
9277;BME280;4676;42.678;23.244;2023-03-22T10:53:31;93940.25;;;9.48;100.00
9277;BME280;4676;42.678;23.244;2023-03-22T10:56:00;93941.81;;;9.50;100.00
9277;BME280;4676;42.678;23.244;2023-03-22T10:58:30;93944.31;;;9.52;100.00
9277;BME280;4676;42.678;23.244;2023-03-22T11:01:01;93928.75;;;9.61;100.00
9277;BME280;4676;42.678;23.244;2023-03-22T11:03:32;93934.41;;;9.68;100.00
9277;BME280;4676;42.678;23.244;2023-03-22T11:06:04;93936.72;;;9.74;100.00
9277;BME280;4676;42.678;23.244;2023-03-22T11:08:38;93936.84;;;9.71;100.00
9277;BME280;4676;42.678;23.244;2023-03-22T11:11:05;93940.16;;;9.71;100.00
9277;BME280;4676;42.678;23.244;2023-03-22T11:13:34;93936.59;;;9.77;100.00
9277;BME280;4676;42.678;23.244;2023-03-22T11:16:01;93941.03;;;9.92;100.00
9277;BME280;4676;42.678;23.244;2023-03-22T11:18:30;93887.53;;;9.59;100.00
9277;BME280;4676;42.678;23.244;2023-03-22T11:20:59;93940.53;;;9.84;100.00
9277;BME280;4676;42.678;23.244;2023-03-22T11:23:26;93928.81;;;9.81;100.00
9277;BME280;4676;42.678;23.244;2023-03-22T11:26:02;93930.31;;;9.85;100.00
9277;BME280;4676;42.678;23.244;2023-03-22T11:28:35;93918.97;;;9.95;100.00
9277;BME280;4676;42.678;23.244;2023-03-22T11:31:06;93935.22;;;9.90;100.00
9277;BME280;4676;42.678;23.244;2023-03-22T11:33:34;93918.59;;;9.63;100.00
9277;BME280;4676;42.678;23.244;2023-03-22T11:36:03;93923.06;;;9.78;100.00
9277;BME280;4676;42.678;23.244;2023-03-22T11:38:35;93926.22;;;9.83;100.00
9277;BME280;4676;42.678;23.244;2023-03-22T11:41:05;93918.28;;;9.70;100.00
9277;BME280;4676;42.678;23.244;2023-03-22T11:43:36;93926.72;;;9.71;100.00
9277;BME280;4676;42.678;23.244;2023-03-22T11:46:05;93924.22;;;9.69;100.00
9277;BME280;4676;42.678;23.244;2023-03-22T11:48:34;93912.75;;;9.61;100.00
9277;BME280;4676;42.678;23.244;2023-03-22T11:51:07;93917.38;;;9.71;100.00
9277;BME280;4676;42.678;23.244;2023-03-22T11:53:37;93920.63;;;9.75;100.00
9277;BME280;4676;42.678;23.244;2023-03-22T11:56:07;93921.94;;;9.85;100.00
9277;BME280;4676;42.678;23.244;2023-03-22T11:58:52;93916.78;;;9.86;100.00
9277;BME280;4676;42.678;23.244;2023-03-22T12:01:33;93920.97;;;9.87;100.00
9277;BME280;4676;42.678;23.244;2023-03-22T12:04:04;93926.03;;;9.87;100.00
9277;BME280;4676;42.678;23.244;2023-03-22T12:06:35;93917.47;;;9.90;100.00
9277;BME280;4676;42.678;23.244;2023-03-22T12:09:07;93914.78;;;9.94;100.00
9277;BME280;4676;42.678;23.244;2023-03-22T12:11:38;93917.94;;;9.99;100.00
9277;BME280;4676;42.678;23.244;2023-03-22T12:14:15;93925.88;;;10.12;100.00
9277;BME280;4676;42.678;23.244;2023-03-22T12:16:46;93915.78;;;10.11;100.00
9277;BME280;4676;42.678;23.244;2023-03-22T12:19:21;93914.69;;;10.18;100.00
9277;BME280;4676;42.678;23.244;2023-03-22T12:21:50;93899.50;;;10.18;100.00
9277;BME280;4676;42.678;23.244;2023-03-22T12:24:24;93906.03;;;10.23;100.00
9277;BME280;4676;42.678;23.244;2023-03-22T12:26:54;93905.44;;;10.37;100.00
9277;BME280;4676;42.678;23.244;2023-03-22T12:29:25;93909.00;;;10.72;100.00
9277;BME280;4676;42.678;23.244;2023-03-22T12:31:58;93921.25;;;10.81;100.00
9277;BME280;4676;42.678;23.244;2023-03-22T12:34:34;93914.97;;;10.89;100.00
9277;BME280;4676;42.678;23.244;2023-03-22T12:37:01;93904.16;;;11.05;100.00
9277;BME280;4676;42.678;23.244;2023-03-22T12:39:33;93909.84;;;11.10;100.00
9277;BME280;4676;42.678;23.244;2023-03-22T12:42:04;93894.97;;;11.21;100.00
9277;BME280;4676;42.678;23.244;2023-03-22T12:44:37;93902.63;;;11.38;100.00
9277;BME280;4676;42.678;23.244;2023-03-22T12:47:11;93904.31;;;11.37;100.00
9277;BME280;4676;42.678;23.244;2023-03-22T12:49:49;93906.50;;;11.45;100.00
9277;BME280;4676;42.678;23.244;2023-03-22T12:52:21;93902.78;;;11.52;100.00
9277;BME280;4676;42.678;23.244;2023-03-22T12:54:50;93907.00;;;11.53;100.00
9277;BME280;4676;42.678;23.244;2023-03-22T12:57:18;93906.31;;;11.49;100.00
9277;BME280;4676;42.678;23.244;2023-03-22T12:59:48;93905.41;;;11.50;100.00
9277;BME280;4676;42.678;23.244;2023-03-22T13:02:19;93893.47;;;11.52;100.00
9277;BME280;4676;42.678;23.244;2023-03-22T13:04:51;93901.44;;;11.45;100.00
9277;BME280;4676;42.678;23.244;2023-03-22T13:07:37;93904.56;;;11.33;100.00
9277;BME280;4676;42.678;23.244;2023-03-22T13:10:38;93904.75;;;11.28;100.00
9277;BME280;4676;42.678;23.244;2023-03-22T13:13:11;93901.41;;;11.28;100.00
9277;BME280;4676;42.678;23.244;2023-03-22T13:15:56;93899.84;;;11.25;100.00
9277;BME280;4676;42.678;23.244;2023-03-22T13:18:42;93895.94;;;11.18;100.00
9277;BME280;4676;42.678;23.244;2023-03-22T13:21:23;93902.22;;;11.10;100.00
9277;BME280;4676;42.678;23.244;2023-03-22T13:23:57;93894.13;;;11.01;100.00
9277;BME280;4676;42.678;23.244;2023-03-22T13:26:31;93898.53;;;11.17;100.00
9277;BME280;4676;42.678;23.244;2023-03-22T13:29:01;93894.00;;;11.23;100.00
9277;BME280;4676;42.678;23.244;2023-03-22T13:31:39;93861.16;;;11.20;100.00